sensor_id;sensor_type;location;lat;lon;timestamp;temperature;humidity
37342;DHT22;58643;49.052;8.518;2023-02-28T00:00:33;-0.80;99.90
37342;DHT22;58643;49.052;8.518;2023-02-28T00:02:59;-0.80;99.90
37342;DHT22;58643;49.052;8.518;2023-02-28T00:05:26;-0.80;99.90
37342;DHT22;58643;49.052;8.518;2023-02-28T00:07:52;-1.10;99.90
37342;DHT22;58643;49.052;8.518;2023-02-28T00:10:24;-1.00;99.90
37342;DHT22;58643;49.052;8.518;2023-02-28T00:12:50;-1.10;99.90
37342;DHT22;58643;49.052;8.518;2023-02-28T00:15:17;-1.10;99.90
37342;DHT22;58643;49.052;8.518;2023-02-28T00:17:43;-1.10;99.90
37342;DHT22;58643;49.052;8.518;2023-02-28T00:20:10;-1.10;99.90
37342;DHT22;58643;49.052;8.518;2023-02-28T00:22:45;-1.10;99.90
37342;DHT22;58643;49.052;8.518;2023-02-28T00:25:14;-1.20;99.90
37342;DHT22;58643;49.052;8.518;2023-02-28T00:27:42;-1.20;99.90
37342;DHT22;58643;49.052;8.518;2023-02-28T00:30:11;-1.20;99.90
37342;DHT22;58643;49.052;8.518;2023-02-28T00:32:38;-1.30;99.90
37342;DHT22;58643;49.052;8.518;2023-02-28T00:35:04;-1.10;99.90
37342;DHT22;58643;49.052;8.518;2023-02-28T00:37:30;-1.10;99.90
37342;DHT22;58643;49.052;8.518;2023-02-28T00:39:56;-1.10;99.90
37342;DHT22;58643;49.052;8.518;2023-02-28T00:42:21;-1.20;99.90
37342;DHT22;58643;49.052;8.518;2023-02-28T00:44:47;-1.00;99.90
37342;DHT22;58643;49.052;8.518;2023-02-28T00:47:13;-1.10;99.90
37342;DHT22;58643;49.052;8.518;2023-02-28T00:49:38;-1.10;99.90
37342;DHT22;58643;49.052;8.518;2023-02-28T00:52:04;-0.90;99.90
37342;DHT22;58643;49.052;8.518;2023-02-28T00:54:29;-1.00;99.90
37342;DHT22;58643;49.052;8.518;2023-02-28T00:56:55;-1.00;99.90
37342;DHT22;58643;49.052;8.518;2023-02-28T00:59:21;-1.00;99.90
37342;DHT22;58643;49.052;8.518;2023-02-28T01:01:47;-1.20;99.90
37342;DHT22;58643;49.052;8.518;2023-02-28T01:04:13;-1.10;99.90
37342;DHT22;58643;49.052;8.518;2023-02-28T01:06:38;-1.10;99.90
37342;DHT22;58643;49.052;8.518;2023-02-28T01:09:06;-1.20;99.90
37342;DHT22;58643;49.052;8.518;2023-02-28T01:11:32;-1.30;99.90
37342;DHT22;58643;49.052;8.518;2023-02-28T01:13:58;1.40;99.90
37342;DHT22;58643;49.052;8.518;2023-02-28T01:16:24;-1.30;99.90
37342;DHT22;58643;49.052;8.518;2023-02-28T01:18:50;-1.20;99.90
37342;DHT22;58643;49.052;8.518;2023-02-28T01:21:17;-1.30;99.90
37342;DHT22;58643;49.052;8.518;2023-02-28T01:23:43;-1.40;99.90
37342;DHT22;58643;49.052;8.518;2023-02-28T01:26:15;-1.50;99.90
37342;DHT22;58643;49.052;8.518;2023-02-28T01:28:41;-1.50;99.90
37342;DHT22;58643;49.052;8.518;2023-02-28T01:31:07;-1.60;99.90
37342;DHT22;58643;49.052;8.518;2023-02-28T01:33:33;-1.60;99.90
37342;DHT22;58643;49.052;8.518;2023-02-28T01:36:18;-1.60;99.90
37342;DHT22;58643;49.052;8.518;2023-02-28T01:38:45;-1.60;99.90
37342;DHT22;58643;49.052;8.518;2023-02-28T01:41:26;-2.00;99.90
37342;DHT22;58643;49.052;8.518;2023-02-28T01:44:04;-1.70;99.90
37342;DHT22;58643;49.052;8.518;2023-02-28T01:46:32;-1.80;99.90
37342;DHT22;58643;49.052;8.518;2023-02-28T01:49:03;-1.90;99.90
37342;DHT22;58643;49.052;8.518;2023-02-28T01:54:03;-1.90;99.90
37342;DHT22;58643;49.052;8.518;2023-02-28T01:56:33;-2.10;99.90
37342;DHT22;58643;49.052;8.518;2023-02-28T01:59:00;-1.60;99.90
37342;DHT22;58643;49.052;8.518;2023-02-28T02:01:27;-2.00;99.90
37342;DHT22;58643;49.052;8.518;2023-02-28T02:03:55;-2.10;99.90
37342;DHT22;58643;49.052;8.518;2023-02-28T02:06:27;-1.40;99.90
37342;DHT22;58643;49.052;8.518;2023-02-28T02:08:54;-1.90;99.90
37342;DHT22;58643;49.052;8.518;2023-02-28T02:11:22;-1.90;99.90
37342;DHT22;58643;49.052;8.518;2023-02-28T02:17:07;-1.70;99.90
37342;DHT22;58643;49.052;8.518;2023-02-28T02:20:03;-1.70;99.90
37342;DHT22;58643;49.052;8.518;2023-02-28T02:25:27;-1.70;99.90
37342;DHT22;58643;49.052;8.518;2023-02-28T02:34:04;-1.70;99.90
37342;DHT22;58643;49.052;8.518;2023-02-28T02:39:35;-1.60;99.90
37342;DHT22;58643;49.052;8.518;2023-02-28T02:42:12;-1.70;99.90
37342;DHT22;58643;49.052;8.518;2023-02-28T02:44:47;-0.30;99.90
37342;DHT22;58643;49.052;8.518;2023-02-28T02:47:17;-1.90;99.90
37342;DHT22;58643;49.052;8.518;2023-02-28T02:49:51;-1.80;99.90
37342;DHT22;58643;49.052;8.518;2023-02-28T02:52:22;-1.90;99.90
37342;DHT22;58643;49.052;8.518;2023-02-28T02:54:50;-2.00;99.90
37342;DHT22;58643;49.052;8.518;2023-02-28T02:57:40;-1.90;99.90
37342;DHT22;58643;49.052;8.518;2023-02-28T03:00:09;-2.10;99.90
37342;DHT22;58643;49.052;8.518;2023-02-28T03:02:36;-2.20;99.90
37342;DHT22;58643;49.052;8.518;2023-02-28T03:05:23;-2.20;99.90
37342;DHT22;58643;49.052;8.518;2023-02-28T03:07:50;-2.30;99.90
37342;DHT22;58643;49.052;8.518;2023-02-28T03:10:31;-2.20;99.90
37342;DHT22;58643;49.052;8.518;2023-02-28T03:19:03;-1.70;99.90
37342;DHT22;58643;49.052;8.518;2023-02-28T03:24:19;-1.50;99.90
37342;DHT22;58643;49.052;8.518;2023-02-28T03:26:55;-1.50;99.90
37342;DHT22;58643;49.052;8.518;2023-02-28T03:29:35;-1.50;99.90
37342;DHT22;58643;49.052;8.518;2023-02-28T03:32:11;-1.30;99.90
37342;DHT22;58643;49.052;8.518;2023-02-28T03:34:46;-1.30;99.90
37342;DHT22;58643;49.052;8.518;2023-02-28T03:37:19;-1.30;99.90
37342;DHT22;58643;49.052;8.518;2023-02-28T03:39:51;-1.30;99.90
37342;DHT22;58643;49.052;8.518;2023-02-28T03:42:21;-1.20;99.90
37342;DHT22;58643;49.052;8.518;2023-02-28T03:47:23;-1.10;99.90
37342;DHT22;58643;49.052;8.518;2023-02-28T03:50:02;-1.00;99.90
37342;DHT22;58643;49.052;8.518;2023-02-28T03:52:32;-1.00;99.90
37342;DHT22;58643;49.052;8.518;2023-02-28T03:55:03;-0.90;99.90
37342;DHT22;58643;49.052;8.518;2023-02-28T04:02:42;-0.70;99.90
37342;DHT22;58643;49.052;8.518;2023-02-28T04:05:07;1.00;99.90
37342;DHT22;58643;49.052;8.518;2023-02-28T04:07:33;-0.60;99.90
37342;DHT22;58643;49.052;8.518;2023-02-28T04:09:59;-1.00;99.90
37342;DHT22;58643;49.052;8.518;2023-02-28T04:12:25;-0.60;99.90
37342;DHT22;58643;49.052;8.518;2023-02-28T04:14:50;-0.50;99.90
37342;DHT22;58643;49.052;8.518;2023-02-28T04:17:16;-0.50;99.90
37342;DHT22;58643;49.052;8.518;2023-02-28T04:19:42;-0.50;99.90
37342;DHT22;58643;49.052;8.518;2023-02-28T04:22:09;-0.40;99.90
37342;DHT22;58643;49.052;8.518;2023-02-28T04:24:35;-0.50;99.90
37342;DHT22;58643;49.052;8.518;2023-02-28T04:27:01;-0.50;99.90
37342;DHT22;58643;49.052;8.518;2023-02-28T04:29:31;-0.50;99.90
37342;DHT22;58643;49.052;8.518;2023-02-28T04:32:01;-0.40;99.90
37342;DHT22;58643;49.052;8.518;2023-02-28T04:34:28;-0.40;99.90
37342;DHT22;58643;49.052;8.518;2023-02-28T04:36:55;-0.40;99.90
37342;DHT22;58643;49.052;8.518;2023-02-28T04:39:22;-0.40;99.90
37342;DHT22;58643;49.052;8.518;2023-02-28T04:41:48;-1.50;99.90
37342;DHT22;58643;49.052;8.518;2023-02-28T04:44:14;-0.40;99.90
37342;DHT22;58643;49.052;8.518;2023-02-28T04:46:40;-0.50;99.90
37342;DHT22;58643;49.052;8.518;2023-02-28T04:49:05;-0.40;99.90
37342;DHT22;58643;49.052;8.518;2023-02-28T04:51:31;-0.40;99.90
37342;DHT22;58643;49.052;8.518;2023-02-28T04:53:57;-0.50;99.90
37342;DHT22;58643;49.052;8.518;2023-02-28T04:56:22;-0.70;99.90
37342;DHT22;58643;49.052;8.518;2023-02-28T04:58:48;-0.50;99.90
37342;DHT22;58643;49.052;8.518;2023-02-28T05:01:23;-0.40;99.90
37342;DHT22;58643;49.052;8.518;2023-02-28T05:03:50;-0.50;99.90
37342;DHT22;58643;49.052;8.518;2023-02-28T05:06:17;-0.50;99.90
37342;DHT22;58643;49.052;8.518;2023-02-28T05:08:42;-0.50;99.90
37342;DHT22;58643;49.052;8.518;2023-02-28T05:11:29;-0.80;99.90
37342;DHT22;58643;49.052;8.518;2023-02-28T05:13:59;-0.70;99.90
37342;DHT22;58643;49.052;8.518;2023-02-28T05:16:24;-0.80;99.90
37342;DHT22;58643;49.052;8.518;2023-02-28T05:18:50;-0.80;99.90
37342;DHT22;58643;49.052;8.518;2023-02-28T05:21:36;-0.90;99.90
37342;DHT22;58643;49.052;8.518;2023-02-28T05:24:09;-0.90;99.90
37342;DHT22;58643;49.052;8.518;2023-02-28T05:26:37;-0.90;99.90
37342;DHT22;58643;49.052;8.518;2023-02-28T05:29:03;-0.80;99.90
37342;DHT22;58643;49.052;8.518;2023-02-28T05:31:30;-0.80;99.90
37342;DHT22;58643;49.052;8.518;2023-02-28T05:33:56;-1.10;99.90
37342;DHT22;58643;49.052;8.518;2023-02-28T05:36:21;-0.90;99.90
37342;DHT22;58643;49.052;8.518;2023-02-28T05:38:48;-0.70;99.90
37342;DHT22;58643;49.052;8.518;2023-02-28T05:41:14;-0.80;99.90
37342;DHT22;58643;49.052;8.518;2023-02-28T05:43:40;-0.70;99.90
37342;DHT22;58643;49.052;8.518;2023-02-28T05:46:06;-0.80;99.90
37342;DHT22;58643;49.052;8.518;2023-02-28T05:48:37;-0.70;99.90
37342;DHT22;58643;49.052;8.518;2023-02-28T05:51:03;-1.00;99.90
37342;DHT22;58643;49.052;8.518;2023-02-28T05:53:30;-0.70;99.90
37342;DHT22;58643;49.052;8.518;2023-02-28T05:55:56;-0.60;99.90
37342;DHT22;58643;49.052;8.518;2023-02-28T05:58:22;-0.60;99.90
37342;DHT22;58643;49.052;8.518;2023-02-28T06:00:48;-0.60;99.90
37342;DHT22;58643;49.052;8.518;2023-02-28T06:03:14;-0.60;99.90
37342;DHT22;58643;49.052;8.518;2023-02-28T06:05:40;-0.50;99.90
37342;DHT22;58643;49.052;8.518;2023-02-28T06:08:06;-0.30;99.90
37342;DHT22;58643;49.052;8.518;2023-02-28T06:10:33;1.30;99.90
37342;DHT22;58643;49.052;8.518;2023-02-28T06:13:00;-0.40;99.90
37342;DHT22;58643;49.052;8.518;2023-02-28T06:15:27;-0.40;99.90
37342;DHT22;58643;49.052;8.518;2023-02-28T06:17:53;-0.30;99.90
37342;DHT22;58643;49.052;8.518;2023-02-28T06:20:21;-0.30;99.90
37342;DHT22;58643;49.052;8.518;2023-02-28T06:22:47;-0.30;99.90
37342;DHT22;58643;49.052;8.518;2023-02-28T06:25:13;-0.10;99.90
37342;DHT22;58643;49.052;8.518;2023-02-28T06:27:38;-0.20;99.90
37342;DHT22;58643;49.052;8.518;2023-02-28T06:30:04;-0.20;99.90
37342;DHT22;58643;49.052;8.518;2023-02-28T06:32:30;-0.20;99.90
37342;DHT22;58643;49.052;8.518;2023-02-28T06:34:56;-0.20;99.90
37342;DHT22;58643;49.052;8.518;2023-02-28T06:37:23;-0.10;99.90
37342;DHT22;58643;49.052;8.518;2023-02-28T06:39:51;0.70;99.90
37342;DHT22;58643;49.052;8.518;2023-02-28T06:42:17;0.00;99.90
37342;DHT22;58643;49.052;8.518;2023-02-28T06:44:42;0.00;99.90
37342;DHT22;58643;49.052;8.518;2023-02-28T06:47:08;0.00;99.90
37342;DHT22;58643;49.052;8.518;2023-02-28T06:49:35;0.10;99.90
37342;DHT22;58643;49.052;8.518;2023-02-28T06:52:01;0.20;99.90
37342;DHT22;58643;49.052;8.518;2023-02-28T06:54:27;0.20;99.90
37342;DHT22;58643;49.052;8.518;2023-02-28T06:56:52;0.30;99.90
37342;DHT22;58643;49.052;8.518;2023-02-28T06:59:19;0.10;99.90
37342;DHT22;58643;49.052;8.518;2023-02-28T07:01:45;0.40;99.90
37342;DHT22;58643;49.052;8.518;2023-02-28T07:04:11;0.30;99.90
37342;DHT22;58643;49.052;8.518;2023-02-28T07:06:38;0.40;99.90
37342;DHT22;58643;49.052;8.518;2023-02-28T07:09:04;0.50;99.90
37342;DHT22;58643;49.052;8.518;2023-02-28T07:11:29;0.40;99.90
37342;DHT22;58643;49.052;8.518;2023-02-28T07:13:56;0.50;99.90
37342;DHT22;58643;49.052;8.518;2023-02-28T07:16:22;0.50;99.90
37342;DHT22;58643;49.052;8.518;2023-02-28T07:18:49;0.50;99.90
37342;DHT22;58643;49.052;8.518;2023-02-28T07:21:15;0.60;99.90
37342;DHT22;58643;49.052;8.518;2023-02-28T07:23:41;1.30;99.90
37342;DHT22;58643;49.052;8.518;2023-02-28T07:26:13;0.60;99.90
37342;DHT22;58643;49.052;8.518;2023-02-28T07:28:40;0.60;99.90
37342;DHT22;58643;49.052;8.518;2023-02-28T07:31:07;0.60;99.90
37342;DHT22;58643;49.052;8.518;2023-02-28T07:33:32;0.70;99.90
37342;DHT22;58643;49.052;8.518;2023-02-28T07:36:04;0.70;99.90
37342;DHT22;58643;49.052;8.518;2023-02-28T07:38:31;0.70;99.90
37342;DHT22;58643;49.052;8.518;2023-02-28T07:40:58;0.80;99.90
37342;DHT22;58643;49.052;8.518;2023-02-28T07:43:24;1.00;99.90
37342;DHT22;58643;49.052;8.518;2023-02-28T07:45:49;0.90;99.90
37342;DHT22;58643;49.052;8.518;2023-02-28T07:48:15;2.70;99.90
37342;DHT22;58643;49.052;8.518;2023-02-28T07:50:41;0.90;99.90
37342;DHT22;58643;49.052;8.518;2023-02-28T07:53:06;1.00;99.90
37342;DHT22;58643;49.052;8.518;2023-02-28T07:55:32;0.90;99.90
37342;DHT22;58643;49.052;8.518;2023-02-28T07:57:58;1.00;99.90
37342;DHT22;58643;49.052;8.518;2023-02-28T08:00:24;1.10;99.90
37342;DHT22;58643;49.052;8.518;2023-02-28T08:02:50;1.20;99.90
37342;DHT22;58643;49.052;8.518;2023-02-28T08:05:16;1.30;99.90
37342;DHT22;58643;49.052;8.518;2023-02-28T08:07:42;1.20;99.90
37342;DHT22;58643;49.052;8.518;2023-02-28T08:10:08;1.30;99.90
37342;DHT22;58643;49.052;8.518;2023-02-28T08:12:35;1.20;99.90
37342;DHT22;58643;49.052;8.518;2023-02-28T08:15:00;1.20;99.90
37342;DHT22;58643;49.052;8.518;2023-02-28T08:17:26;1.30;99.90
37342;DHT22;58643;49.052;8.518;2023-02-28T08:19:52;1.30;99.90
37342;DHT22;58643;49.052;8.518;2023-02-28T08:22:17;1.40;99.90
37342;DHT22;58643;49.052;8.518;2023-02-28T08:24:43;1.70;99.90
37342;DHT22;58643;49.052;8.518;2023-02-28T08:27:09;1.40;99.90
37342;DHT22;58643;49.052;8.518;2023-02-28T08:29:37;1.50;99.90
37342;DHT22;58643;49.052;8.518;2023-02-28T08:32:04;1.60;99.90
37342;DHT22;58643;49.052;8.518;2023-02-28T08:34:30;1.70;99.90
37342;DHT22;58643;49.052;8.518;2023-02-28T08:36:55;1.70;99.90
37342;DHT22;58643;49.052;8.518;2023-02-28T08:39:21;1.70;99.90
37342;DHT22;58643;49.052;8.518;2023-02-28T08:41:46;2.00;99.90
37342;DHT22;58643;49.052;8.518;2023-02-28T08:44:12;1.90;99.90
37342;DHT22;58643;49.052;8.518;2023-02-28T08:46:38;2.00;99.90
37342;DHT22;58643;49.052;8.518;2023-02-28T08:49:04;2.00;99.90
37342;DHT22;58643;49.052;8.518;2023-02-28T08:51:30;2.10;99.90
37342;DHT22;58643;49.052;8.518;2023-02-28T08:53:58;2.40;99.90
37342;DHT22;58643;49.052;8.518;2023-02-28T08:56:25;4.50;99.90
37342;DHT22;58643;49.052;8.518;2023-02-28T08:58:51;4.80;99.90
37342;DHT22;58643;49.052;8.518;2023-02-28T09:01:19;2.80;99.90
37342;DHT22;58643;49.052;8.518;2023-02-28T09:03:46;2.60;99.90
37342;DHT22;58643;49.052;8.518;2023-02-28T09:06:14;2.90;99.90
37342;DHT22;58643;49.052;8.518;2023-02-28T09:08:40;3.00;99.90
37342;DHT22;58643;49.052;8.518;2023-02-28T09:11:07;3.00;99.90
37342;DHT22;58643;49.052;8.518;2023-02-28T09:13:33;3.20;99.90
37342;DHT22;58643;49.052;8.518;2023-02-28T09:16:04;3.60;99.90
37342;DHT22;58643;49.052;8.518;2023-02-28T09:18:30;3.80;99.90
37342;DHT22;58643;49.052;8.518;2023-02-28T09:20:56;3.80;99.90
37342;DHT22;58643;49.052;8.518;2023-02-28T09:23:21;4.00;99.90
37342;DHT22;58643;49.052;8.518;2023-02-28T09:25:50;4.10;99.90
37342;DHT22;58643;49.052;8.518;2023-02-28T09:28:16;6.30;99.90
37342;DHT22;58643;49.052;8.518;2023-02-28T09:30:46;4.70;99.90
37342;DHT22;58643;49.052;8.518;2023-02-28T09:33:13;4.80;99.90
37342;DHT22;58643;49.052;8.518;2023-02-28T09:35:39;5.10;99.90
37342;DHT22;58643;49.052;8.518;2023-02-28T09:38:05;5.70;99.90
37342;DHT22;58643;49.052;8.518;2023-02-28T09:40:39;7.00;99.90
37342;DHT22;58643;49.052;8.518;2023-02-28T09:43:12;7.70;96.60
37342;DHT22;58643;49.052;8.518;2023-02-28T09:45:41;8.30;93.80
37342;DHT22;58643;49.052;8.518;2023-02-28T09:48:15;7.70;93.80
37342;DHT22;58643;49.052;8.518;2023-02-28T09:50:47;7.90;95.20
37342;DHT22;58643;49.052;8.518;2023-02-28T09:53:28;9.30;94.70
37342;DHT22;58643;49.052;8.518;2023-02-28T09:56:04;8.40;92.10
37342;DHT22;58643;49.052;8.518;2023-02-28T10:01:09;7.30;92.60
37342;DHT22;58643;49.052;8.518;2023-02-28T10:04:03;6.30;95.30
37342;DHT22;58643;49.052;8.518;2023-02-28T10:06:41;6.10;96.70
37342;DHT22;58643;49.052;8.518;2023-02-28T10:09:29;5.50;98.80
37342;DHT22;58643;49.052;8.518;2023-02-28T10:12:01;7.80;99.90
37342;DHT22;58643;49.052;8.518;2023-02-28T10:14:29;5.20;99.90
37342;DHT22;58643;49.052;8.518;2023-02-28T10:17:13;5.40;99.90
37342;DHT22;58643;49.052;8.518;2023-02-28T10:22:22;6.20;99.10
37342;DHT22;58643;49.052;8.518;2023-02-28T10:24:50;7.30;96.70
37342;DHT22;58643;49.052;8.518;2023-02-28T10:27:17;8.70;93.70
37342;DHT22;58643;49.052;8.518;2023-02-28T10:29:46;9.90;85.60
37342;DHT22;58643;49.052;8.518;2023-02-28T10:32:17;9.60;83.70
37342;DHT22;58643;49.052;8.518;2023-02-28T10:34:43;8.20;88.10
37342;DHT22;58643;49.052;8.518;2023-02-28T10:37:11;7.80;90.50
37342;DHT22;58643;49.052;8.518;2023-02-28T10:39:45;7.50;92.10
37342;DHT22;58643;49.052;8.518;2023-02-28T10:42:32;7.50;91.40
37342;DHT22;58643;49.052;8.518;2023-02-28T10:47:55;5.90;96.50
37342;DHT22;58643;49.052;8.518;2023-02-28T10:55:40;5.20;99.90
37342;DHT22;58643;49.052;8.518;2023-02-28T11:01:20;5.00;99.90
37342;DHT22;58643;49.052;8.518;2023-02-28T11:03:46;4.60;99.90
37342;DHT22;58643;49.052;8.518;2023-02-28T11:08:45;4.70;99.90
37342;DHT22;58643;49.052;8.518;2023-02-28T11:11:11;4.80;99.90
37342;DHT22;58643;49.052;8.518;2023-02-28T11:13:37;4.80;99.90
37342;DHT22;58643;49.052;8.518;2023-02-28T11:16:08;4.90;99.90
37342;DHT22;58643;49.052;8.518;2023-02-28T11:18:53;5.10;99.90
37342;DHT22;58643;49.052;8.518;2023-02-28T11:21:28;5.40;99.90
37342;DHT22;58643;49.052;8.518;2023-02-28T11:26:49;5.20;99.90
37342;DHT22;58643;49.052;8.518;2023-02-28T11:32:12;5.40;99.90
37342;DHT22;58643;49.052;8.518;2023-02-28T11:34:39;5.60;99.90
37342;DHT22;58643;49.052;8.518;2023-02-28T11:37:11;6.00;99.90
37342;DHT22;58643;49.052;8.518;2023-02-28T11:39:37;6.20;99.60
37342;DHT22;58643;49.052;8.518;2023-02-28T11:42:09;6.00;99.30
37342;DHT22;58643;49.052;8.518;2023-02-28T11:48:03;6.00;98.20
37342;DHT22;58643;49.052;8.518;2023-02-28T11:56:44;6.90;95.30
37342;DHT22;58643;49.052;8.518;2023-02-28T12:02:31;6.90;95.30
37342;DHT22;58643;49.052;8.518;2023-02-28T12:05:22;8.90;96.70
37342;DHT22;58643;49.052;8.518;2023-02-28T12:11:00;7.00;94.20
37342;DHT22;58643;49.052;8.518;2023-02-28T12:26:50;8.50;88.40
37342;DHT22;58643;49.052;8.518;2023-02-28T12:29:29;8.70;88.80
37342;DHT22;58643;49.052;8.518;2023-02-28T12:32:06;8.60;85.60
37342;DHT22;58643;49.052;8.518;2023-02-28T12:34:38;8.50;84.50
37342;DHT22;58643;49.052;8.518;2023-02-28T12:37:16;8.00;87.30
37342;DHT22;58643;49.052;8.518;2023-02-28T12:39:48;7.90;86.30
37342;DHT22;58643;49.052;8.518;2023-02-28T12:42:28;7.60;88.10
37342;DHT22;58643;49.052;8.518;2023-02-28T12:45:02;7.90;88.60
37342;DHT22;58643;49.052;8.518;2023-02-28T12:47:28;9.00;85.70
37342;DHT22;58643;49.052;8.518;2023-02-28T12:49:59;9.20;83.10
37342;DHT22;58643;49.052;8.518;2023-02-28T12:52:41;10.10;84.60
37342;DHT22;58643;49.052;8.518;2023-02-28T12:55:19;9.00;83.00
37342;DHT22;58643;49.052;8.518;2023-02-28T12:58:05;9.30;80.50
37342;DHT22;58643;49.052;8.518;2023-02-28T13:01:03;9.50;79.20
37342;DHT22;58643;49.052;8.518;2023-02-28T13:06:41;9.00;80.90
37342;DHT22;58643;49.052;8.518;2023-02-28T13:09:14;8.80;81.40
37342;DHT22;58643;49.052;8.518;2023-02-28T13:14:26;9.60;77.60
37342;DHT22;58643;49.052;8.518;2023-02-28T13:16:58;9.30;79.20
37342;DHT22;58643;49.052;8.518;2023-02-28T13:19:27;11.60;80.80
37342;DHT22;58643;49.052;8.518;2023-02-28T13:21:54;12.00;80.20
37342;DHT22;58643;49.052;8.518;2023-02-28T13:24:45;10.70;77.90
37342;DHT22;58643;49.052;8.518;2023-02-28T13:27:22;10.50;73.50
37342;DHT22;58643;49.052;8.518;2023-02-28T13:29:52;12.10;79.70
37342;DHT22;58643;49.052;8.518;2023-02-28T13:32:32;8.60;81.20
37342;DHT22;58643;49.052;8.518;2023-02-28T13:39:54;9.10;82.00
37342;DHT22;58643;49.052;8.518;2023-02-28T13:47:52;10.50;75.30
37342;DHT22;58643;49.052;8.518;2023-02-28T13:50:36;9.40;76.30
37342;DHT22;58643;49.052;8.518;2023-02-28T14:06:37;8.30;83.40
37342;DHT22;58643;49.052;8.518;2023-02-28T14:09:21;8.40;84.30
37342;DHT22;58643;49.052;8.518;2023-02-28T14:11:49;9.00;83.10
37342;DHT22;58643;49.052;8.518;2023-02-28T14:17:13;10.40;75.80
37342;DHT22;58643;49.052;8.518;2023-02-28T14:19:40;10.80;75.70
37342;DHT22;58643;49.052;8.518;2023-02-28T14:25:17;11.20;72.00
37342;DHT22;58643;49.052;8.518;2023-02-28T14:39:00;9.80;75.20
37342;DHT22;58643;49.052;8.518;2023-02-28T14:41:32;9.10;79.50
37342;DHT22;58643;49.052;8.518;2023-02-28T14:44:01;9.10;79.70
37342;DHT22;58643;49.052;8.518;2023-02-28T14:46:37;10.10;79.80
37342;DHT22;58643;49.052;8.518;2023-02-28T14:49:04;11.10;79.50
37342;DHT22;58643;49.052;8.518;2023-02-28T14:51:31;11.30;78.80
37342;DHT22;58643;49.052;8.518;2023-02-28T14:54:00;9.60;77.50
37342;DHT22;58643;49.052;8.518;2023-02-28T14:56:37;9.20;78.40
37342;DHT22;58643;49.052;8.518;2023-02-28T14:59:04;8.90;79.10
37342;DHT22;58643;49.052;8.518;2023-02-28T15:01:29;9.70;79.70
37342;DHT22;58643;49.052;8.518;2023-02-28T15:04:03;10.60;75.40
37342;DHT22;58643;49.052;8.518;2023-02-28T15:06:29;12.80;74.10
37342;DHT22;58643;49.052;8.518;2023-02-28T15:09:16;11.60;71.90
37342;DHT22;58643;49.052;8.518;2023-02-28T15:11:46;12.40;71.70
37342;DHT22;58643;49.052;8.518;2023-02-28T15:14:17;11.50;71.10
37342;DHT22;58643;49.052;8.518;2023-02-28T15:16:45;10.90;72.00
37342;DHT22;58643;49.052;8.518;2023-02-28T15:19:22;12.40;71.90
37342;DHT22;58643;49.052;8.518;2023-02-28T15:21:54;11.60;69.40
37342;DHT22;58643;49.052;8.518;2023-02-28T15:24:22;11.50;71.20
37342;DHT22;58643;49.052;8.518;2023-02-28T15:27:00;10.90;72.20
37342;DHT22;58643;49.052;8.518;2023-02-28T15:29:29;10.70;72.30
37342;DHT22;58643;49.052;8.518;2023-02-28T15:32:00;10.60;72.60
37342;DHT22;58643;49.052;8.518;2023-02-28T15:34:38;10.60;73.20
37342;DHT22;58643;49.052;8.518;2023-02-28T15:39:55;11.20;73.10
37342;DHT22;58643;49.052;8.518;2023-02-28T15:42:23;10.40;73.40
37342;DHT22;58643;49.052;8.518;2023-02-28T15:44:52;10.30;72.70
37342;DHT22;58643;49.052;8.518;2023-02-28T15:47:26;10.50;72.70
37342;DHT22;58643;49.052;8.518;2023-02-28T15:49:56;11.00;74.40
37342;DHT22;58643;49.052;8.518;2023-02-28T15:52:39;11.40;74.60
37342;DHT22;58643;49.052;8.518;2023-02-28T15:55:22;10.40;71.10
37342;DHT22;58643;49.052;8.518;2023-02-28T15:57:50;10.10;73.50
37342;DHT22;58643;49.052;8.518;2023-02-28T16:00:27;10.30;73.60
37342;DHT22;58643;49.052;8.518;2023-02-28T16:02:53;10.10;73.40
37342;DHT22;58643;49.052;8.518;2023-02-28T16:07:54;9.60;75.30
37342;DHT22;58643;49.052;8.518;2023-02-28T16:10:21;9.90;75.10
37342;DHT22;58643;49.052;8.518;2023-02-28T16:12:50;9.80;75.90
37342;DHT22;58643;49.052;8.518;2023-02-28T16:17:44;9.10;77.30
37342;DHT22;58643;49.052;8.518;2023-02-28T16:20:16;9.40;77.10
37342;DHT22;58643;49.052;8.518;2023-02-28T16:22:43;9.30;76.80
37342;DHT22;58643;49.052;8.518;2023-02-28T16:25:14;9.50;77.20
37342;DHT22;58643;49.052;8.518;2023-02-28T16:27:40;8.90;78.30
37342;DHT22;58643;49.052;8.518;2023-02-28T16:30:09;8.80;78.80
37342;DHT22;58643;49.052;8.518;2023-02-28T16:32:40;8.40;78.10
37342;DHT22;58643;49.052;8.518;2023-02-28T16:35:09;8.60;79.90
37342;DHT22;58643;49.052;8.518;2023-02-28T16:37:35;8.50;80.50
37342;DHT22;58643;49.052;8.518;2023-02-28T16:40:00;8.50;81.90
37342;DHT22;58643;49.052;8.518;2023-02-28T16:42:28;8.10;82.00
37342;DHT22;58643;49.052;8.518;2023-02-28T16:44:54;8.00;82.00
37342;DHT22;58643;49.052;8.518;2023-02-28T16:47:21;8.50;83.80
37342;DHT22;58643;49.052;8.518;2023-02-28T16:49:46;7.30;84.90
37342;DHT22;58643;49.052;8.518;2023-02-28T16:52:13;7.60;87.40
37342;DHT22;58643;49.052;8.518;2023-02-28T16:54:39;6.10;90.30
37342;DHT22;58643;49.052;8.518;2023-02-28T16:57:08;7.70;92.70
37342;DHT22;58643;49.052;8.518;2023-02-28T16:59:39;5.40;94.40
37342;DHT22;58643;49.052;8.518;2023-02-28T17:02:12;5.20;96.50
37342;DHT22;58643;49.052;8.518;2023-02-28T17:04:38;4.70;98.10
37342;DHT22;58643;49.052;8.518;2023-02-28T17:07:04;6.30;99.80
37342;DHT22;58643;49.052;8.518;2023-02-28T17:09:29;4.60;99.90
37342;DHT22;58643;49.052;8.518;2023-02-28T17:11:55;5.40;99.90
37342;DHT22;58643;49.052;8.518;2023-02-28T17:14:22;7.00;99.90
37342;DHT22;58643;49.052;8.518;2023-02-28T17:16:48;5.20;99.90
37342;DHT22;58643;49.052;8.518;2023-02-28T17:19:16;4.20;99.90
37342;DHT22;58643;49.052;8.518;2023-02-28T17:21:42;4.00;99.90
37342;DHT22;58643;49.052;8.518;2023-02-28T17:24:09;4.00;99.90
37342;DHT22;58643;49.052;8.518;2023-02-28T17:26:38;4.00;99.90
37342;DHT22;58643;49.052;8.518;2023-02-28T17:29:06;3.90;99.90
37342;DHT22;58643;49.052;8.518;2023-02-28T17:31:36;3.80;99.90
37342;DHT22;58643;49.052;8.518;2023-02-28T17:34:04;3.70;99.90
37342;DHT22;58643;49.052;8.518;2023-02-28T17:36:29;4.80;99.90
37342;DHT22;58643;49.052;8.518;2023-02-28T17:38:56;3.60;99.90
37342;DHT22;58643;49.052;8.518;2023-02-28T17:41:23;4.90;99.90
37342;DHT22;58643;49.052;8.518;2023-02-28T17:43:49;3.40;99.90
37342;DHT22;58643;49.052;8.518;2023-02-28T17:46:22;4.50;99.90
37342;DHT22;58643;49.052;8.518;2023-02-28T17:48:52;3.30;99.90
37342;DHT22;58643;49.052;8.518;2023-02-28T17:51:23;3.20;99.90
37342;DHT22;58643;49.052;8.518;2023-02-28T17:53:49;2.70;99.90
37342;DHT22;58643;49.052;8.518;2023-02-28T17:56:20;3.20;99.90
37342;DHT22;58643;49.052;8.518;2023-02-28T17:58:46;3.10;99.90
37342;DHT22;58643;49.052;8.518;2023-02-28T18:01:12;3.00;99.90
37342;DHT22;58643;49.052;8.518;2023-02-28T18:03:38;2.80;99.90
37342;DHT22;58643;49.052;8.518;2023-02-28T18:06:04;2.90;99.90
37342;DHT22;58643;49.052;8.518;2023-02-28T18:08:30;2.90;99.90
37342;DHT22;58643;49.052;8.518;2023-02-28T18:10:58;2.90;99.90
37342;DHT22;58643;49.052;8.518;2023-02-28T18:13:24;2.70;99.90
37342;DHT22;58643;49.052;8.518;2023-02-28T18:15:50;2.80;99.90